Time;durP1;ratioP1;P1;durP2;ratioP2;P2;SDS_P1;SDS_P2;PMS_P1;PMS_P2;Temp;Humidity;BMP_temperature;BMP_pressure;BME280_temperature;BME280_humidity;BME280_pressure;Samples;Min_cycle;Max_cycle;Signal;HPM_P1;HPM_P2
2022/10/22 00:01:51;;;;;;;23.87;16.90;;;13.50;99.90;;;;;;5032832;28;20509;-78
2022/10/22 00:04:18;;;;;;;23.30;20.10;;;13.50;99.90;;;;;;5032872;28;20479;-77
2022/10/22 00:06:44;;;;;;;27.40;20.30;;;13.60;99.90;;;;;;5032927;28;20455;-78
2022/10/22 00:09:12;;;;;;;27.30;17.90;;;13.60;99.90;;;;;;5033031;28;20815;-78
2022/10/22 00:11:38;;;;;;;25.70;18.53;;;13.60;99.90;;;;;;5032915;28;20862;-78
2022/10/22 00:14:06;;;;;;;26.87;20.17;;;13.60;99.90;;;;;;5032892;28;20454;-78
2022/10/22 00:16:33;;;;;;;31.63;21.70;;;15.00;99.90;;;;;;5032747;28;20496;-78
2022/10/22 00:19:00;;;;;;;28.17;20.70;;;13.60;99.90;;;;;;5032849;28;20442;-78
2022/10/22 00:21:28;;;;;;;27.97;19.20;;;13.70;99.90;;;;;;5032608;28;20474;-77
2022/10/22 00:23:54;;;;;;;25.10;19.00;;;13.60;99.90;;;;;;5032563;28;20455;-78
2022/10/22 00:26:21;;;;;;;24.37;18.07;;;13.60;99.90;;;;;;5032569;28;20475;-78
2022/10/22 00:28:48;;;;;;;21.30;16.43;;;13.70;99.90;;;;;;5033487;28;20455;-77
2022/10/22 00:31:18;;;;;;;23.03;17.77;;;13.70;99.90;;;;;;5036716;28;20450;-78
2022/10/22 00:33:46;;;;;;;21.63;16.47;;;13.70;99.90;;;;;;5036776;28;20442;-78
2022/10/22 00:36:13;;;;;;;22.70;16.83;;;13.60;99.90;;;;;;5036312;28;20495;-78
2022/10/22 00:38:40;;;;;;;26.63;20.17;;;13.70;99.90;;;;;;5036423;28;20450;-77
2022/10/22 00:41:07;;;;;;;24.30;17.50;;;13.70;99.90;;;;;;5036369;28;20501;-78
2022/10/22 00:43:34;;;;;;;26.23;18.60;;;13.70;99.90;;;;;;5036121;28;20490;-77
2022/10/22 00:46:01;;;;;;;30.80;18.37;;;13.70;99.90;;;;;;5036153;28;20524;-77
2022/10/22 00:48:32;;;;;;;25.03;17.40;;;14.00;99.90;;;;;;5036035;28;20449;-78
2022/10/22 00:51:01;;;;;;;23.90;16.53;;;13.60;99.90;;;;;;5036488;28;20790;-77
2022/10/22 00:53:32;;;;;;;22.17;16.93;;;13.70;99.90;;;;;;5036143;28;20442;-78
2022/10/22 00:55:59;;;;;;;25.67;18.57;;;13.60;99.90;;;;;;5035991;28;20486;-77
2022/10/22 00:58:29;;;;;;;24.40;16.67;;;13.60;99.90;;;;;;5036057;28;20504;-77
2022/10/22 01:00:57;;;;;;;29.70;21.37;;;13.60;99.90;;;;;;5036176;28;20446;-78
2022/10/22 01:03:24;;;;;;;32.27;22.90;;;13.60;99.90;;;;;;5035813;28;20482;-77
2022/10/22 01:05:55;;;;;;;32.83;20.63;;;13.60;99.90;;;;;;5035793;28;20466;-78
2022/10/22 01:08:30;;;;;;;31.17;21.70;;;13.60;99.90;;;;;;5035983;28;20775;-78
2022/10/22 01:11:07;;;;;;;29.00;19.73;;;13.60;99.90;;;;;;5035965;28;20831;-78
2022/10/22 01:13:42;;;;;;;34.77;21.93;;;13.60;99.90;;;;;;5035956;28;20423;-76
2022/10/22 01:16:15;;;;;;;35.13;24.10;;;13.60;99.90;;;;;;5035889;28;20961;-77
2022/10/22 01:18:51;;;;;;;42.53;24.80;;;13.60;99.90;;;;;;5036010;28;20446;-77
2022/10/22 01:21:26;;;;;;;40.30;24.37;;;13.30;99.90;;;;;;5035419;28;20914;-77
2022/10/22 01:24:10;;;;;;;38.23;23.37;;;13.60;99.90;;;;;;5035399;28;20423;-77
2022/10/22 01:26:50;;;;;;;27.00;19.60;;;13.60;99.90;;;;;;5035603;28;20434;-78
2022/10/22 01:29:22;;;;;;;27.63;20.97;;;13.60;99.90;;;;;;5035505;28;20438;-78
2022/10/22 01:31:54;;;;;;;29.23;19.10;;;13.60;99.90;;;;;;5035477;28;20837;-77
2022/10/22 01:34:23;;;;;;;28.07;19.37;;;13.80;99.90;;;;;;5035311;28;20405;-77
2022/10/22 01:36:51;;;;;;;24.40;17.80;;;13.50;99.90;;;;;;5035188;28;20863;-77
2022/10/22 01:39:19;;;;;;;26.10;17.60;;;13.50;99.90;;;;;;5034639;28;20945;-77
2022/10/22 01:41:46;;;;;;;26.00;17.43;;;13.50;99.90;;;;;;5035120;28;20446;-77
2022/10/22 01:44:26;;;;;;;21.87;16.50;;;13.40;99.90;;;;;;5035182;28;20447;-77
2022/10/22 01:46:58;;;;;;;22.77;16.23;;;13.50;99.90;;;;;;5035471;28;20450;-77
2022/10/22 01:49:30;;;;;;;23.80;17.40;;;13.50;99.90;;;;;;5035144;28;20465;-77
2022/10/22 01:52:06;;;;;;;20.43;16.10;;;13.50;99.90;;;;;;5035176;28;20434;-78
2022/10/22 01:54:42;;;;;;;21.33;16.50;;;13.50;99.90;;;;;;5035335;28;20524;-79
2022/10/22 01:57:17;;;;;;;25.70;18.27;;;13.50;99.90;;;;;;5034716;28;20462;-77
2022/10/22 01:59:54;;;;;;;31.10;20.43;;;13.50;99.90;;;;;;5035223;28;20430;-77
2022/10/22 02:02:30;;;;;;;26.63;18.37;;;13.50;99.90;;;;;;5035508;28;20477;-77
2022/10/22 02:05:00;;;;;;;23.70;17.00;;;13.50;99.90;;;;;;5035068;28;20466;-77
2022/10/22 02:07:32;;;;;;;22.83;15.97;;;13.40;99.90;;;;;;5036660;28;20461;-77
2022/10/22 02:10:00;;;;;;;20.83;15.30;;;13.40;99.90;;;;;;5037084;28;20427;-77
2022/10/22 02:12:29;;;;;;;24.27;16.10;;;13.40;99.90;;;;;;5037317;28;20443;-78
2022/10/22 02:14:58;;;;;;;26.33;15.80;;;13.40;99.90;;;;;;5034954;28;20985;-77
2022/10/22 02:17:29;;;;;;;21.97;16.47;;;13.40;99.90;;;;;;5035721;28;20450;-77
2022/10/22 02:19:58;;;;;;;29.23;17.70;;;13.50;99.90;;;;;;5034948;28;20913;-77
2022/10/22 02:22:27;;;;;;;25.27;16.87;;;13.40;99.90;;;;;;5035205;28;20905;-77
2022/10/22 02:24:53;;;;;;;27.73;17.47;;;13.40;99.90;;;;;;5034459;28;21058;-77
2022/10/22 02:27:24;;;;;;;21.57;16.17;;;13.40;99.90;;;;;;5034441;28;20451;-77
2022/10/22 02:29:59;;;;;;;22.87;16.30;;;13.40;99.90;;;;;;5034750;28;20434;-77
2022/10/22 02:32:30;;;;;;;21.90;16.37;;;13.40;99.90;;;;;;5034541;28;20435;-77
2022/10/22 02:34:57;;;;;;;19.73;14.90;;;13.40;99.90;;;;;;5034002;28;21034;-77
2022/10/22 02:37:25;;;;;;;23.40;15.83;;;13.40;99.90;;;;;;5033943;28;20481;-77
2022/10/22 02:39:53;;;;;;;24.37;15.43;;;13.40;99.90;;;;;;5034273;28;20504;-77
2022/10/22 02:42:19;;;;;;;20.63;15.43;;;13.30;99.90;;;;;;5034040;28;20535;-77
2022/10/22 02:44:46;;;;;;;22.00;16.33;;;13.30;99.90;;;;;;5033942;28;20519;-77
2022/10/22 02:47:14;;;;;;;25.83;17.50;;;13.60;99.90;;;;;;5034014;28;20447;-77
2022/10/22 02:49:41;;;;;;;21.47;15.40;;;13.30;99.90;;;;;;5033942;28;20454;-77
2022/10/22 02:52:07;;;;;;;21.07;15.50;;;13.30;99.90;;;;;;5033913;28;20520;-77
2022/10/22 02:54:34;;;;;;;25.70;15.40;;;13.30;99.90;;;;;;5034511;28;20885;-77
2022/10/22 02:57:01;;;;;;;24.33;15.30;;;13.30;99.90;;;;;;5034262;28;20454;-77
2022/10/22 02:59:28;;;;;;;25.13;17.37;;;13.30;99.90;;;;;;5034074;28;20455;-77
2022/10/22 03:01:54;;;;;;;20.90;15.70;;;13.30;99.90;;;;;;5033897;28;20454;-77
2022/10/22 03:04:22;;;;;;;24.07;16.53;;;13.00;99.90;;;;;;5033875;28;20454;-77
2022/10/22 03:06:49;;;;;;;26.53;16.30;;;13.30;99.90;;;;;;5033915;28;20504;-77
2022/10/22 03:09:15;;;;;;;21.00;15.80;;;13.30;99.90;;;;;;5033845;28;20453;-77
2022/10/22 03:11:42;;;;;;;23.00;16.07;;;13.20;99.90;;;;;;5033873;28;20447;-77
2022/10/22 03:14:09;;;;;;;25.50;16.63;;;13.30;99.90;;;;;;5033908;28;20485;-77
2022/10/22 03:16:36;;;;;;;23.40;16.10;;;13.50;99.90;;;;;;5033714;28;20454;-77
2022/10/22 03:19:02;;;;;;;23.07;16.97;;;13.30;99.90;;;;;;5033728;28;20446;-77
2022/10/22 03:21:36;;;;;;;22.23;15.37;;;13.30;99.90;;;;;;5033954;28;20442;-77
2022/10/22 03:24:07;;;;;;;23.80;16.47;;;13.30;99.90;;;;;;5033598;28;20474;-77
2022/10/22 03:26:35;;;;;;;21.87;14.80;;;13.30;99.90;;;;;;5033457;28;20477;-77
2022/10/22 03:29:02;;;;;;;20.80;16.07;;;13.30;99.90;;;;;;5033708;28;20868;-77
2022/10/22 03:31:29;;;;;;;23.03;16.20;;;13.30;99.90;;;;;;5033897;28;20442;-77
2022/10/22 03:33:55;;;;;;;23.33;16.00;;;13.30;99.90;;;;;;5033923;28;20443;-77
2022/10/22 03:36:22;;;;;;;26.30;16.07;;;13.20;99.90;;;;;;5033827;28;20474;-77
2022/10/22 03:38:50;;;;;;;21.33;14.60;;;13.20;99.90;;;;;;5033642;28;20505;-77
2022/10/22 03:41:17;;;;;;;22.97;15.40;;;13.20;99.90;;;;;;5033453;28;20450;-77
2022/10/22 03:43:48;;;;;;;25.27;16.53;;;13.20;99.90;;;;;;5033386;28;20980;-77
2022/10/22 03:46:15;;;;;;;22.97;16.07;;;13.10;99.90;;;;;;5033438;28;20470;-77
2022/10/22 03:48:41;;;;;;;26.00;15.30;;;13.10;99.90;;;;;;5033073;28;20450;-77
2022/10/22 03:51:08;;;;;;;23.60;15.53;;;13.20;99.90;;;;;;5033174;28;20435;-77
2022/10/22 03:53:35;;;;;;;22.80;15.67;;;13.40;99.90;;;;;;5033289;28;20886;-79
2022/10/22 03:56:07;;;;;;;22.10;15.73;;;13.20;99.90;;;;;;5085186;22;20485;-85
2022/10/22 03:58:33;;;;;;;23.97;14.03;;;13.20;99.90;;;;;;5078582;28;20410;-84
2022/10/22 04:01:04;;;;;;;24.50;15.53;;;13.20;99.90;;;;;;5076439;28;20475;-84
2022/10/22 04:03:31;;;;;;;25.60;15.87;;;12.80;99.90;;;;;;5077571;28;20466;-84
2022/10/22 04:06:01;;;;;;;22.70;15.63;;;13.20;99.90;;;;;;5076878;28;20457;-84
2022/10/22 04:08:28;;;;;;;23.17;15.00;;;13.20;99.90;;;;;;5065018;28;20430;-84
2022/10/22 04:10:55;;;;;;;19.23;14.50;;;13.20;99.90;;;;;;5061127;28;20449;-83
2022/10/22 04:13:23;;;;;;;22.33;15.87;;;13.20;99.90;;;;;;5061999;28;20437;-83
2022/10/22 04:15:50;;;;;;;25.57;14.97;;;13.20;99.90;;;;;;5077847;28;20458;-84
2022/10/22 04:18:17;;;;;;;24.60;16.10;;;13.30;99.90;;;;;;5080229;28;20473;-83
2022/10/22 04:20:44;;;;;;;20.47;16.00;;;13.20;99.90;;;;;;5074456;28;20442;-85
2022/10/22 04:23:11;;;;;;;21.10;14.63;;;13.10;99.90;;;;;;5069925;28;20504;-83
2022/10/22 04:25:37;;;;;;;23.43;15.60;;;13.20;99.90;;;;;;5068184;28;20465;-83
2022/10/22 04:28:07;;;;;;;22.07;14.77;;;13.20;99.90;;;;;;5082061;28;20428;-82
2022/10/22 04:30:35;;;;;;;23.93;15.63;;;13.20;99.90;;;;;;5082277;28;20432;-82
2022/10/22 04:33:02;;;;;;;24.30;15.87;;;13.10;99.90;;;;;;5082136;28;20441;-83
2022/10/22 04:35:28;;;;;;;22.33;15.33;;;13.10;99.90;;;;;;5081613;28;20467;-82
2022/10/22 04:37:55;;;;;;;23.77;17.80;;;13.20;99.90;;;;;;5081799;28;20430;-83
2022/10/22 04:40:22;;;;;;;22.77;17.73;;;13.20;99.90;;;;;;5078697;28;20453;-84
2022/10/22 04:42:49;;;;;;;22.80;18.50;;;13.20;99.90;;;;;;5072643;28;20481;-84
2022/10/22 04:45:15;;;;;;;23.73;18.07;;;13.20;99.90;;;;;;5072700;28;20464;-84
2022/10/22 04:47:43;;;;;;;26.80;20.00;;;13.20;99.90;;;;;;5069975;28;20450;-84
2022/10/22 04:50:10;;;;;;;26.23;17.70;;;13.10;99.90;;;;;;5067279;28;20472;-84
2022/10/22 04:52:37;;;;;;;23.10;17.77;;;13.10;99.90;;;;;;5067375;28;20449;-84
2022/10/22 04:55:04;;;;;;;31.80;18.70;;;13.10;99.90;;;;;;5069762;28;20478;-84
2022/10/22 04:57:30;;;;;;;33.10;25.23;;;13.10;99.90;;;;;;5069320;28;20437;-84
2022/10/22 04:59:57;;;;;;;36.13;27.20;;;13.00;99.90;;;;;;5070830;28;20441;-84
2022/10/22 05:02:24;;;;;;;33.63;28.83;;;13.10;99.90;;;;;;5070935;28;20789;-84
2022/10/22 05:04:52;;;;;;;32.47;26.43;;;13.10;99.90;;;;;;5071356;28;20507;-84
2022/10/22 05:07:19;;;;;;;26.50;20.80;;;12.70;99.90;;;;;;5070170;28;20496;-84
2022/10/22 05:09:45;;;;;;;31.50;19.20;;;13.10;99.90;;;;;;5070389;28;20449;-84
2022/10/22 05:12:12;;;;;;;23.50;17.37;;;13.10;99.90;;;;;;5070636;28;20453;-84
2022/10/22 05:14:39;;;;;;;37.50;18.50;;;12.80;99.90;;;;;;5068678;28;20449;-84
2022/10/22 05:17:05;;;;;;;31.67;18.43;;;13.10;99.90;;;;;;5069627;28;20448;-84
2022/10/22 05:19:32;;;;;;;27.10;17.47;;;13.00;99.90;;;;;;5065027;28;20453;-83
2022/10/22 05:22:02;;;;;;;30.73;17.20;;;13.00;99.90;;;;;;5059773;28;20511;-83
2022/10/22 05:24:30;;;;;;;29.33;17.23;;;13.10;99.90;;;;;;5062597;28;20528;-83
2022/10/22 05:26:58;;;;;;;21.40;16.03;;;13.00;99.90;;;;;;5066769;28;20450;-84
2022/10/22 05:29:26;;;;;;;29.97;16.57;;;13.00;99.90;;;;;;5069231;28;20446;-84
2022/10/22 05:31:53;;;;;;;23.80;15.60;;;12.70;99.90;;;;;;5069765;28;20460;-83
2022/10/22 05:34:20;;;;;;;25.30;17.40;;;13.00;99.90;;;;;;5071703;28;20449;-84
2022/10/22 05:36:46;;;;;;;27.33;17.73;;;13.00;99.90;;;;;;5061994;28;20474;-82
2022/10/22 05:39:14;;;;;;;19.63;14.57;;;13.00;99.90;;;;;;5064530;28;20546;-82
2022/10/22 05:41:41;;;;;;;23.10;17.17;;;12.90;99.90;;;;;;5067368;28;20450;-82
2022/10/22 05:44:11;;;;;;;23.10;16.50;;;12.90;99.90;;;;;;5068802;28;20484;-83
2022/10/22 05:46:37;;;;;;;27.80;16.90;;;13.00;99.90;;;;;;5068347;28;20437;-84
2022/10/22 05:49:06;;;;;;;24.90;17.20;;;13.00;99.90;;;;;;5069386;28;20446;-84
2022/10/22 05:51:35;;;;;;;25.67;16.80;;;13.00;99.90;;;;;;5069630;28;20450;-83
2022/10/22 05:54:05;;;;;;;21.20;15.60;;;13.00;99.90;;;;;;5069924;28;21036;-84
2022/10/22 05:56:35;;;;;;;26.50;16.60;;;12.90;99.90;;;;;;5067434;28;20475;-84
2022/10/22 05:59:02;;;;;;;23.73;16.60;;;12.90;99.90;;;;;;5068933;28;20430;-84
2022/10/22 06:01:30;;;;;;;26.13;16.80;;;12.90;99.90;;;;;;5070470;28;20504;-84
2022/10/22 06:03:58;;;;;;;26.13;17.60;;;13.00;99.90;;;;;;5079583;28;20537;-82
2022/10/22 06:06:29;;;;;;;21.80;16.73;;;12.90;99.90;;;;;;5080002;28;20472;-84
2022/10/22 06:08:59;;;;;;;24.00;16.30;;;12.90;99.90;;;;;;5072789;28;20408;-83
2022/10/22 06:11:26;;;;;;;26.87;17.30;;;12.90;99.90;;;;;;5069255;28;20495;-84
2022/10/22 06:13:54;;;;;;;24.70;16.77;;;12.90;99.90;;;;;;5068568;28;20438;-84
2022/10/22 06:16:20;;;;;;;26.13;16.67;;;12.90;99.90;;;;;;5069118;28;20470;-84
2022/10/22 06:18:47;;;;;;;26.93;17.80;;;12.90;99.90;;;;;;5068463;28;20445;-84
2022/10/22 06:21:15;;;;;;;24.30;17.13;;;12.80;99.90;;;;;;5074022;28;20461;-83
2022/10/22 06:23:43;;;;;;;30.03;17.20;;;12.90;99.90;;;;;;5077799;28;20485;-83
2022/10/22 06:26:10;;;;;;;25.63;17.83;;;13.20;99.90;;;;;;5070968;28;20466;-84
2022/10/22 06:28:37;;;;;;;29.03;17.47;;;12.80;99.90;;;;;;5069078;28;20442;-84
2022/10/22 06:31:06;;;;;;;30.93;19.07;;;12.80;99.90;;;;;;5067930;28;20842;-84
2022/10/22 06:33:36;;;;;;;23.87;18.20;;;12.90;99.90;;;;;;5067983;28;21005;-84
2022/10/22 06:36:07;;;;;;;27.70;19.00;;;12.90;99.90;;;;;;5068512;28;20501;-84
2022/10/22 06:38:33;;;;;;;28.27;17.83;;;13.00;99.90;;;;;;5069663;28;20832;-84
2022/10/22 06:41:03;;;;;;;26.70;17.67;;;13.00;99.90;;;;;;5068786;28;20449;-84
2022/10/22 06:43:30;;;;;;;29.30;18.73;;;13.00;99.90;;;;;;5070528;28;20871;-84
2022/10/22 06:46:30;;;;;;;29.23;18.23;;;13.00;99.90;;;;;;5066375;28;20465;-92
2022/10/22 06:48:59;;;;;;;22.10;15.23;;;13.00;99.90;;;;;;5007192;28;20440;-84
2022/10/22 06:51:27;;;;;;;26.03;16.77;;;13.00;99.90;;;;;;5055379;28;20440;-83
2022/10/22 06:53:54;;;;;;;23.27;15.93;;;13.00;99.90;;;;;;5069170;28;20425;-84
2022/10/22 06:56:22;;;;;;;24.67;17.73;;;13.10;99.90;;;;;;5069196;28;20565;-84
2022/10/22 06:58:50;;;;;;;28.20;17.90;;;13.10;99.90;;;;;;5069312;28;20467;-84
2022/10/22 07:01:19;;;;;;;19.83;15.60;;;13.00;99.90;;;;;;5068904;28;20441;-84
2022/10/22 07:03:49;;;;;;;24.17;16.03;;;13.00;99.90;;;;;;5069629;28;20485;-84
2022/10/22 07:06:16;;;;;;;21.57;16.10;;;13.10;99.90;;;;;;5069770;28;20484;-84
2022/10/22 07:08:43;;;;;;;24.37;17.07;;;13.10;99.90;;;;;;5068941;28;20523;-84
2022/10/22 07:11:12;;;;;;;24.57;16.50;;;13.10;99.90;;;;;;5070131;28;20441;-84
2022/10/22 07:13:39;;;;;;;24.73;17.10;;;13.10;99.90;;;;;;5068233;28;20446;-84
2022/10/22 07:16:07;;;;;;;23.63;17.37;;;13.10;99.90;;;;;;5068117;28;20461;-83
2022/10/22 07:18:35;;;;;;;22.50;16.30;;;13.00;99.90;;;;;;5068417;28;20437;-84
2022/10/22 07:21:04;;;;;;;27.03;18.27;;;13.10;99.90;;;;;;5067075;28;20441;-83
2022/10/22 07:23:31;;;;;;;26.97;17.53;;;13.10;99.90;;;;;;5069006;28;20442;-84
2022/10/22 07:25:58;;;;;;;20.27;16.60;;;13.10;99.90;;;;;;5069575;28;20444;-84
2022/10/22 07:28:26;;;;;;;20.17;17.10;;;13.20;99.90;;;;;;5067433;28;20461;-84
2022/10/22 07:30:53;;;;;;;28.73;17.20;;;13.20;99.90;;;;;;5066635;28;20476;-82
2022/10/22 07:33:20;;;;;;;21.23;16.20;;;13.20;99.90;;;;;;5067380;28;20859;-83
2022/10/22 07:35:46;;;;;;;31.07;16.57;;;13.30;99.90;;;;;;5075176;28;20525;-82
2022/10/22 07:38:16;;;;;;;19.73;14.73;;;13.30;99.90;;;;;;5076431;28;20441;-84
2022/10/22 07:40:43;;;;;;;20.00;15.03;;;13.40;99.90;;;;;;5076737;28;20434;-84
2022/10/22 07:43:10;;;;;;;18.13;14.77;;;13.40;99.90;;;;;;5077658;28;20434;-82
2022/10/22 07:45:37;;;;;;;24.20;15.47;;;13.50;99.90;;;;;;5077633;28;20477;-83
2022/10/22 07:48:04;;;;;;;24.80;15.93;;;13.50;99.90;;;;;;5074696;28;20500;-84
2022/10/22 07:50:30;;;;;;;23.20;15.80;;;13.60;99.90;;;;;;5076752;28;20441;-84
2022/10/22 07:52:57;;;;;;;19.20;14.07;;;13.60;99.90;;;;;;5073535;28;20449;-83
2022/10/22 07:55:26;;;;;;;21.23;15.60;;;13.60;99.90;;;;;;5073545;28;20492;-84
2022/10/22 07:57:52;;;;;;;20.40;15.37;;;13.60;99.90;;;;;;5071413;28;20452;-84
2022/10/22 08:00:19;;;;;;;19.57;14.63;;;13.70;99.90;;;;;;5070233;28;20440;-84
2022/10/22 08:02:46;;;;;;;24.70;15.43;;;13.70;99.90;;;;;;5068400;28;20448;-84
2022/10/22 08:05:13;;;;;;;20.30;14.30;;;13.70;99.90;;;;;;5068021;28;20485;-84
2022/10/22 08:07:40;;;;;;;20.33;15.60;;;13.70;99.90;;;;;;5067601;28;20444;-83
2022/10/22 08:10:08;;;;;;;17.03;13.40;;;13.80;99.90;;;;;;5067793;28;20230;-84
2022/10/22 08:12:36;;;;;;;20.43;14.40;;;13.80;99.90;;;;;;5068068;28;20445;-84
2022/10/22 08:15:03;;;;;;;18.23;13.80;;;;;;;;;;5056501;28;20435;-84
2022/10/22 08:17:30;;;;;;;20.23;15.60;;;13.90;99.90;;;;;;5062286;28;20233;-82
2022/10/22 08:19:56;;;;;;;19.23;16.00;;;13.80;99.90;;;;;;5063704;28;20494;-83
2022/10/22 08:22:23;;;;;;;17.50;14.30;;;13.90;99.90;;;;;;5061619;28;20464;-81
2022/10/22 08:24:50;;;;;;;17.77;14.73;;;13.90;99.90;;;;;;5062965;28;20485;-83
2022/10/22 08:27:17;;;;;;;20.50;13.40;;;13.90;99.90;;;;;;5068012;28;20452;-82
2022/10/22 08:29:45;;;;;;;15.47;13.07;;;13.90;99.90;;;;;;5068408;28;20449;-82
2022/10/22 08:32:12;;;;;;;17.57;13.30;;;13.90;99.90;;;;;;5063358;28;20468;-84
2022/10/22 08:34:39;;;;;;;16.23;12.93;;;14.00;99.90;;;;;;5066660;28;20927;-85
2022/10/22 08:37:07;;;;;;;16.13;13.70;;;13.90;99.90;;;;;;5075262;28;20429;-83
2022/10/22 08:39:34;;;;;;;20.03;15.23;;;13.90;99.90;;;;;;5077754;28;20450;-84
2022/10/22 08:42:06;;;;;;;20.40;15.90;;;13.90;99.90;;;;;;5077600;28;20464;-84
2022/10/22 08:44:52;;;;;;;18.20;16.23;;;14.00;99.90;;;;;;5066988;28;20569;-83
2022/10/22 08:47:35;;;;;;;19.60;15.70;;;14.00;99.90;;;;;;5067201;28;20816;-84
2022/10/22 08:50:02;;;;;;;19.27;15.20;;;14.00;99.90;;;;;;5066826;28;20449;-84
2022/10/22 08:52:33;;;;;;;15.73;14.00;;;14.10;99.90;;;;;;5067484;28;20519;-84
2022/10/22 08:55:02;;;;;;;17.53;13.83;;;14.10;99.90;;;;;;5070097;28;20477;-83
2022/10/22 08:57:45;;;;;;;17.57;14.90;;;14.10;99.90;;;;;;5070262;28;20416;-84
2022/10/22 09:00:18;;;;;;;17.70;14.97;;;14.10;99.90;;;;;;5069116;28;20437;-84
2022/10/22 09:02:56;;;;;;;18.27;14.83;;;14.10;99.90;;;;;;5068908;28;20422;-84
2022/10/22 09:05:34;;;;;;;19.57;15.20;;;14.20;99.90;;;;;;5069065;28;20493;-84
2022/10/22 09:08:02;;;;;;;17.00;13.53;;;14.20;99.90;;;;;;5069355;28;20429;-84
2022/10/22 09:10:32;;;;;;;19.47;15.97;;;14.30;99.90;;;;;;5069655;28;20865;-84
2022/10/22 09:12:59;;;;;;;16.23;13.20;;;14.00;99.90;;;;;;5069413;28;20426;-84
2022/10/22 09:15:30;;;;;;;22.47;17.77;;;14.40;99.90;;;;;;5070374;28;20492;-83
2022/10/22 09:18:10;;;;;;;18.87;15.73;;;14.60;99.90;;;;;;5071827;28;20430;-86
2022/10/22 09:20:43;;;;;;;18.07;14.47;;;14.60;99.90;;;;;;5068453;28;20524;-83
2022/10/22 09:23:28;;;;;;;15.70;13.03;;;14.70;99.90;;;;;;5070546;28;20464;-84
2022/10/22 09:25:57;;;;;;;16.40;13.13;;;14.90;99.90;;;;;;5070637;28;21030;-83
2022/10/22 09:28:24;;;;;;;16.03;12.70;;;14.90;99.90;;;;;;5070268;28;20476;-84
2022/10/22 09:30:52;;;;;;;16.07;14.23;;;14.90;99.90;;;;;;5069745;28;20450;-83
2022/10/22 09:33:23;;;;;;;19.23;14.27;;;14.80;99.90;;;;;;5069208;28;20441;-83
2022/10/22 09:35:53;;;;;;;13.37;11.90;;;14.90;99.90;;;;;;5074938;28;20453;-82
2022/10/22 09:38:24;;;;;;;17.40;13.00;;;15.00;99.90;;;;;;5080532;28;20418;-83
2022/10/22 09:40:53;;;;;;;15.70;13.00;;;15.10;99.90;;;;;;5080574;28;20422;-82
2022/10/22 09:43:20;;;;;;;14.67;13.07;;;15.30;99.90;;;;;;5078669;28;20441;-87
2022/10/22 09:45:48;;;;;;;15.80;12.20;;;15.20;99.90;;;;;;5078959;28;20481;-84
2022/10/22 09:48:25;;;;;;;14.37;11.67;;;15.30;99.90;;;;;;5079189;28;20460;-85
2022/10/22 09:50:59;;;;;;;17.30;13.30;;;15.20;99.90;;;;;;5066911;28;20430;-85
2022/10/22 09:53:28;;;;;;;15.67;12.20;;;15.10;99.90;;;;;;5066882;28;20437;-85
2022/10/22 09:56:00;;;;;;;19.53;12.40;;;15.20;99.90;;;;;;5107276;22;20472;-77
2022/10/22 09:58:27;;;;;;;17.63;13.27;;;15.20;99.90;;;;;;5056088;28;20433;-78
2022/10/22 10:00:56;;;;;;;15.87;12.03;;;15.30;99.90;;;;;;5056207;28;20459;-79
2022/10/22 10:03:26;;;;;;;14.37;12.83;;;15.40;99.90;;;;;;5055600;28;20998;-79
2022/10/22 10:05:54;;;;;;;14.30;12.60;;;15.50;99.90;;;;;;5055939;28;21021;-78
2022/10/22 10:08:22;;;;;;;17.30;12.50;;;15.60;99.90;;;;;;5055705;28;20954;-78
2022/10/22 10:10:52;;;;;;;20.50;13.10;;;15.60;99.90;;;;;;5055278;28;20457;-78
2022/10/22 10:13:34;;;;;;;15.73;12.10;;;15.80;99.90;;;;;;5054919;28;20802;-77
2022/10/22 10:16:09;;;;;;;15.77;10.70;;;15.70;99.90;;;;;;5056287;28;20469;-78
2022/10/22 10:18:45;;;;;;;13.37;11.97;;;15.70;99.90;;;;;;5055477;28;20830;-78
2022/10/22 10:21:23;;;;;;;14.60;13.07;;;15.60;99.90;;;;;;5055439;28;20434;-78
2022/10/22 10:23:57;;;;;;;18.33;13.17;;;15.70;99.90;;;;;;5056314;28;20438;-77
2022/10/22 10:26:34;;;;;;;17.37;13.10;;;15.60;99.90;;;;;;5057103;28;20998;-77
2022/10/22 10:29:18;;;;;;;18.33;12.10;;;15.60;99.90;;;;;;5055591;28;20931;-77
2022/10/22 10:31:57;;;;;;;13.90;12.40;;;15.60;99.90;;;;;;5057086;28;20785;-77
2022/10/22 10:34:34;;;;;;;16.67;13.10;;;15.60;99.90;;;;;;5058415;28;20433;-77
2022/10/22 10:37:14;;;;;;;15.37;11.80;;;15.60;99.90;;;;;;5055193;28;20477;-77
2022/10/22 10:40:08;;;;;;;15.23;13.60;;;15.60;99.90;;;;;;5055729;28;20444;-77
2022/10/22 10:42:41;;;;;;;16.90;12.40;;;16.00;99.90;;;;;;5056202;28;20445;-77
2022/10/22 10:45:17;;;;;;;17.20;13.53;;;16.00;99.90;;;;;;5055008;28;20474;-78
2022/10/22 10:48:10;;;;;;;16.40;14.70;;;15.80;99.90;;;;;;5054415;28;20457;-78
2022/10/22 10:50:48;;;;;;;14.27;11.90;;;15.80;99.90;;;;;;5055096;28;20430;-78
2022/10/22 10:53:26;;;;;;;18.10;13.67;;;15.70;99.90;;;;;;5054546;28;20438;-78
2022/10/22 10:56:01;;;;;;;17.50;13.17;;;15.70;99.90;;;;;;5055335;28;20879;-77
2022/10/22 10:58:39;;;;;;;15.90;13.63;;;15.60;99.90;;;;;;5055921;28;20448;-77
2022/10/22 11:01:16;;;;;;;18.57;15.60;;;15.70;99.90;;;;;;5055208;28;20437;-77
2022/10/22 11:04:00;;;;;;;17.17;12.77;;;15.70;99.90;;;;;;5057810;28;20433;-77
2022/10/22 11:06:32;;;;;;;18.43;13.80;;;15.90;99.90;;;;;;5056063;28;21007;-77
2022/10/22 11:09:05;;;;;;;21.50;15.63;;;15.90;99.90;;;;;;5054029;28;20495;-77
2022/10/22 11:11:36;;;;;;;15.83;13.27;;;16.10;99.90;;;;;;5054386;28;20830;-77
2022/10/22 11:14:10;;;;;;;15.63;13.87;;;16.20;99.90;;;;;;5053963;28;20437;-78
2022/10/22 11:16:41;;;;;;;19.47;15.40;;;16.20;99.90;;;;;;5053896;28;20473;-78
2022/10/22 11:19:16;;;;;;;18.97;15.20;;;16.30;99.90;;;;;;5053889;28;20430;-78
2022/10/22 11:21:50;;;;;;;19.20;15.93;;;16.50;99.90;;;;;;5053764;28;20430;-78
2022/10/22 11:24:21;;;;;;;28.17;18.60;;;16.70;99.90;;;;;;5053317;28;20798;-77
2022/10/22 11:26:54;;;;;;;17.87;14.83;;;16.70;99.90;;;;;;5053683;28;20877;-78
2022/10/22 11:29:24;;;;;;;20.50;15.90;;;16.60;99.90;;;;;;5053619;28;20438;-78
2022/10/22 11:31:54;;;;;;;28.90;19.17;;;16.70;99.90;;;;;;5053943;28;20408;-77
2022/10/22 11:34:24;;;;;;;20.33;15.70;;;16.80;99.90;;;;;;5053983;28;20528;-78
2022/10/22 11:36:54;;;;;;;19.47;14.80;;;16.70;99.90;;;;;;5053579;28;20944;-78
2022/10/22 11:39:39;;;;;;;19.97;16.27;;;16.70;99.90;;;;;;5053303;28;20568;-77
2022/10/22 11:42:09;;;;;;;26.90;19.47;;;16.60;99.90;;;;;;5054066;28;20902;-78
2022/10/22 11:44:47;;;;;;;20.10;15.87;;;16.50;99.90;;;;;;5054498;28;20859;-77
2022/10/22 11:47:19;;;;;;;20.50;16.23;;;16.70;99.90;;;;;;5054104;28;20568;-77
2022/10/22 11:49:55;;;;;;;21.50;15.30;;;16.80;99.90;;;;;;5054363;28;20433;-78
2022/10/22 11:52:26;;;;;;;18.20;14.03;;;16.70;99.90;;;;;;5053877;28;20436;-77
2022/10/22 11:55:00;;;;;;;18.40;14.47;;;16.90;99.90;;;;;;5053734;28;20425;-78
2022/10/22 11:57:35;;;;;;;16.50;11.70;;;16.40;99.90;;;;;;5053812;28;20488;-77
2022/10/22 12:00:06;;;;;;;15.70;13.30;;;16.50;99.90;;;;;;5052975;28;20429;-78
2022/10/22 12:02:42;;;;;;;14.47;12.73;;;16.60;99.90;;;;;;5053653;28;20426;-77
2022/10/22 12:05:36;;;;;;;17.53;12.50;;;17.00;99.90;;;;;;5053444;28;21021;-77
2022/10/22 12:08:26;;;;;;;16.40;12.00;;;16.60;99.90;;;;;;5035708;28;20960;-77
2022/10/22 12:11:02;;;;;;;18.30;13.57;;;16.80;99.90;;;;;;5054117;28;20425;-76
2022/10/22 12:13:32;;;;;;;17.50;12.70;;;16.90;99.90;;;;;;5054964;28;20884;-77
2022/10/22 12:16:03;;;;;;;23.13;13.67;;;16.90;99.90;;;;;;5055254;28;20995;-78
2022/10/22 12:18:36;;;;;;;15.53;12.07;;;16.90;99.90;;;;;;5055146;28;20429;-77
2022/10/22 12:21:03;;;;;;;16.70;11.30;;;17.00;99.90;;;;;;5053505;28;20511;-77
2022/10/22 12:23:34;;;;;;;11.40;10.10;;;17.00;99.90;;;;;;5055825;28;20446;-78
2022/10/22 12:26:03;;;;;;;10.70;9.30;;;17.10;99.90;;;;;;5058746;28;20903;-77
2022/10/22 12:28:38;;;;;;;14.13;11.77;;;17.10;99.90;;;;;;5058771;28;20444;-77
2022/10/22 12:31:05;;;;;;;20.60;10.47;;;17.20;99.90;;;;;;5057157;28;20775;-77
2022/10/22 12:33:32;;;;;;;12.00;8.93;;;17.30;99.90;;;;;;5058560;28;20437;-78
2022/10/22 12:36:02;;;;;;;8.80;7.07;;;17.40;99.90;;;;;;5061174;28;20508;-77
2022/10/22 12:38:30;;;;;;;13.27;8.10;;;17.50;99.90;;;;;;5057816;28;20437;-77
2022/10/22 12:40:58;;;;;;;10.80;7.00;;;17.50;99.90;;;;;;5060621;28;20495;-77
2022/10/22 12:43:26;;;;;;;12.90;9.83;;;17.60;99.90;;;;;;5057524;28;20951;-77